Weather reports worldwide

Advertisment
Cervera de Pisuerga, Spain (8058): temperature & dewpoint: 12.01.2018 07:00:00 - 18.01.2018 07:00:00 (CET)Cervera de Pisuerga, Spain (8058): wind speed & gusts: 12.01.2018 07:00:00 - 18.01.2018 07:00:00 (CET)Cervera de Pisuerga, Spain (8058): wind direction: 12.01.2018 07:00:00 - 18.01.2018 07:00:00 (CET)Cervera de Pisuerga, Spain (8058): visibility: 12.01.2018 07:00:00 - 18.01.2018 07:00:00 (CET)Cervera de Pisuerga, Spain (8058): sunshine duration: 12.01.2018 07:00:00 - 18.01.2018 07:00:00 (CET)Cervera de Pisuerga, Spain (8058): precipitation: 12.01.2018 07:00:00 - 18.01.2018 07:00:00 (CET)
Date & Time tt [°C] td [°C] ff [km/h] ff [kn] fx [km/h] fx [kn] dd vv [km] sd [min] rr [mm]
18.01.2018 07:00:00 - - - - - - - - - -
18.01.2018 06:00:00 -0,4 -3,9 9 5 15 8 WNW 20 0 0,0
18.01.2018 05:00:00 -1,0 -3,3 5 3 10 6 W 20 0 0,0
18.01.2018 04:00:00 -1,7 -2,7 7 4 20 11 NW 20 0 0,0
18.01.2018 03:00:00 -1,5 -2,7 3 2 12 6 NNW 20 0 0,0
18.01.2018 02:00:00 -1,2 -2,2 8 5 18 10 WNW 20 0 0,0
18.01.2018 01:00:00 -0,8 -2,0 5 3 18 10 WNW 20 0 -
18.01.2018 00:00:00 -0,8 -2,0 4 2 19 10 WNW 20 0 0,0
17.01.2018 23:00:00 0,3 -1,0 5 3 10 5 W 20 0 0,0
17.01.2018 22:00:00 0,5 -0,7 2 1 10 6 NNW 20 0 0,0
17.01.2018 21:00:00 0,8 -0,7 5 3 11 6 N 18 0 0,0
17.01.2018 20:00:00 1,5 -0,7 6 3 - - NE 19 - -
17.01.2018 19:00:00 3,3 0,0 4 2 16 9 WNW 20 0 -
17.01.2018 18:00:00 5,3 0,4 1 1 17 9 S 20 18 0,0
17.01.2018 17:00:00 9,1 -0,5 5 3 15 8 E 20 60 0,0
17.01.2018 16:00:00 9,6 0,4 6 3 16 9 SSW 20 60 0,0
17.01.2018 15:00:00 9,6 1,9 10 5 19 11 SSE 20 55 0,0
17.01.2018 14:00:00 9,8 2,5 10 5 19 10 SSE 20 60 0,0
17.01.2018 13:00:00 8,3 -0,7 5 3 14 8 NNW 20 60 -
17.01.2018 12:00:00 7,0 1,9 3 2 12 7 SSW 20 60 0,0
17.01.2018 11:00:00 3,7 3,0 2 1 21 11 SW 20 60 0,0
17.01.2018 10:00:00 0,2 -0,5 8 4 23 12 WNW 0,2 11 0,0
17.01.2018 09:00:00 0,9 0,2 5 3 20 11 W 0,1 0 0,0
17.01.2018 08:00:00 1,7 1,1 3 1 8 4 W 0,1 0 0,0
17.01.2018 07:00:00 1,9 1,3 3 2 10 6 WSW 0,1 0 -
17.01.2018 06:00:00 2,3 1,5 3 2 18 10 SSW 0,1 0 0,0
17.01.2018 05:00:00 2,2 1,3 3 2 11 6 W 0,8 0 0,0
17.01.2018 04:00:00 1,8 0,4 6 3 16 9 ENE 0,8 0 0,0
17.01.2018 03:00:00 3,4 -0,3 6 3 17 9 NNE 20 0 0,0
17.01.2018 02:00:00 5,5 0,2 8 4 21 12 W 20 0 0,0
17.01.2018 01:00:00 6,6 1,1 8 4 23 12 WNW 20 0 -
17.01.2018 00:00:00 7,3 1,3 10 5 24 13 SW 20 0 0,0
16.01.2018 23:00:00 6,9 1,7 6 4 28 15 W 20 0 0,0
16.01.2018 22:00:00 6,6 1,7 6 3 20 11 NW 20 0 0,0
16.01.2018 21:00:00 5,5 2,9 6 4 22 12 ENE 20 0 0,0
16.01.2018 20:00:00 6,8 3,2 10 6 23 12 SSW 20 0 0,0
16.01.2018 19:00:00 7,5 4,5 12 7 34 18 SW 20 0 -
16.01.2018 18:00:00 8,7 3,9 9 5 22 12 SW 20 29 0,0
16.01.2018 17:00:00 11,9 5,8 6 3 16 9 ENE 20 60 0,0
16.01.2018 16:00:00 12,3 6,4 9 5 19 10 ENE 20 60 0,0
16.01.2018 15:00:00 11,6 5,9 11 6 18 10 E 20 60 0,0
16.01.2018 14:00:00 9,8 5,6 8 5 14 8 E 20 60 0,0
16.01.2018 13:00:00 5,9 5,1 7 4 11 6 NE 20 60 -
16.01.2018 12:00:00 2,3 1,7 4 2 19 10 NE 0,6 21 0,0
16.01.2018 11:00:00 0,3 -0,3 4 2 17 9 NW 0,1 0 0,0
16.01.2018 10:00:00 -0,9 -1,4 6 3 15 8 ENE 0,4 5 0,0
16.01.2018 09:00:00 -2,3 -2,7 5 3 18 10 WNW 10 0 0,0
16.01.2018 08:00:00 -1,5 -2,0 4 2 19 10 WNW 0,1 0 0,0
16.01.2018 07:00:00 -1,0 -1,4 4 2 18 10 WNW 0,1 0 -
16.01.2018 06:00:00 -1,1 -1,7 5 3 21 11 W 0,1 0 0,0
16.01.2018 05:00:00 -1,1 -1,7 5 3 18 10 W 0,1 0 0,0
16.01.2018 04:00:00 -1,1 -1,7 5 3 19 10 W 0,2 0 0,0
16.01.2018 03:00:00 -0,9 -1,4 5 3 18 10 W 0,3 0 0,0
16.01.2018 02:00:00 -1,5 -2,0 6 3 19 11 WNW 2,3 0 0,0
16.01.2018 01:00:00 -1,5 -2,2 6 3 19 11 W 0,3 0 -
16.01.2018 00:00:00 -1,3 -2,0 4 2 18 10 NW - 0 0,0
15.01.2018 23:00:00 -1,3 -2,0 3 2 16 9 NNW 0,6 0 0,0
15.01.2018 22:00:00 -1,4 -2,2 3 1 14 8 N 3,3 0 0,0
15.01.2018 21:00:00 -2,2 -3,0 5 3 10 6 NE 3,6 0 0,0
15.01.2018 20:00:00 -1,9 -3,0 4 2 10 5 NNE 6 0 0,0
15.01.2018 19:00:00 -0,9 -2,5 4 2 10 5 NNE 12 0 -
15.01.2018 18:00:00 0,9 -1,4 5 3 11 6 NE 19 2 0,0
15.01.2018 17:00:00 2,8 -0,7 5 3 10 6 ENE 20 14 0,0
15.01.2018 16:00:00 3,3 0,2 5 3 14 7 NE 20 10 0,0
15.01.2018 15:00:00 3,0 0,0 4 2 11 6 NE 20 14 0,0
15.01.2018 14:00:00 0,8 -1,2 6 3 12 7 NE 20 0 0,0
15.01.2018 13:00:00 -0,3 -2,7 8 4 13 7 ENE 19 34 -
15.01.2018 12:00:00 -1,1 -3,6 7 4 13 7 ENE 20 21 0,0
15.01.2018 11:00:00 -0,8 -2,2 6 3 15 8 E 20 23 0,0
15.01.2018 10:00:00 -2,1 -3,6 5 3 18 10 W 20 25 0,0
15.01.2018 09:00:00 -3,5 -4,8 4 2 16 9 W 20 0 0,0
15.01.2018 08:00:00 -3,5 -4,8 6 3 16 9 WNW 20 0 0,0
15.01.2018 07:00:00 -3,6 -5,1 7 4 18 10 WNW 20 0 -
15.01.2018 06:00:00 -3,4 -4,5 5 3 16 8 W 20 0 0,0
15.01.2018 05:00:00 -3,3 -4,2 5 3 18 10 WNW 20 0 0,0
15.01.2018 04:00:00 -3,0 -3,9 5 3 19 11 NW 20 0 0,0
15.01.2018 03:00:00 -3,0 -3,6 7 4 15 8 NW 20 0 0,0
15.01.2018 02:00:00 -4,7 -5,4 8 4 14 8 W 20 0 0,0
15.01.2018 01:00:00 -5,1 -5,7 4 2 14 8 WSW 6 0 -
15.01.2018 00:00:00 -4,2 -4,8 4 2 13 7 WNW 0,3 0 0,0
14.01.2018 23:00:00 -3,3 -4,0 4 2 19 11 WNW - 0 0,0
14.01.2018 22:00:00 -2,4 -3,0 6 4 17 9 W 0,4 0 0,0
14.01.2018 21:00:00 -2,1 -2,8 5 3 17 9 WNW - 0 0,0
14.01.2018 20:00:00 -1,7 -2,5 5 3 15 8 SW 0,2 0 0,0
14.01.2018 19:00:00 -1,6 -2,5 3 2 15 8 NW 0,4 0 -
14.01.2018 18:00:00 -1,1 -2,2 3 2 15 8 NE 0,7 0 0,0
14.01.2018 17:00:00 -0,6 -2,5 7 4 17 9 E 0,7 0 0,0
14.01.2018 16:00:00 0,8 -1,7 6 3 15 8 E 5 55 0,0
14.01.2018 15:00:00 2,2 -1,7 9 5 19 10 ENE 3,4 60 0,0
14.01.2018 14:00:00 4,1 0,0 14 8 22 12 S 20 59 0,0
14.01.2018 13:00:00 3,0 0,4 12 6 20 11 S 20 60 -
14.01.2018 12:00:00 1,3 -0,5 6 3 13 7 SSW 10 60 0,0
14.01.2018 11:00:00 -1,7 -2,5 4 2 16 9 WNW 20 60 0,0
14.01.2018 10:00:00 -4,6 -5,4 5 3 16 9 NW 20 52 0,0
14.01.2018 09:00:00 -4,9 -5,7 4 2 18 10 WNW 20 0 0,0
14.01.2018 08:00:00 -5,1 -6,0 7 4 17 9 WNW 20 0 0,0
14.01.2018 07:00:00 -5,4 -6,0 6 3 14 7 WNW 20 0 -
14.01.2018 06:00:00 -4,8 -5,4 6 4 16 9 W 0,2 0 0,0
14.01.2018 05:00:00 -3,9 -4,5 6 4 18 10 W 0,1 0 0,0
14.01.2018 04:00:00 -3,3 -3,9 6 3 15 8 SE 0,1 0 0,0
14.01.2018 03:00:00 -2,6 -3,3 4 2 15 8 WNW 0,1 0 0,0
14.01.2018 02:00:00 -2,1 -2,7 5 3 16 9 SSW 0,1 0 0,0
14.01.2018 01:00:00 -1,9 -2,5 5 3 16 8 SSW 0,2 0 -
14.01.2018 00:00:00 -1,5 -2,2 5 3 16 9 WNW 0,9 0 0,0
13.01.2018 23:00:00 -1,4 -2,2 4 2 17 9 NW 0,1 0 0,0
13.01.2018 22:00:00 -1,2 -2,0 4 2 15 8 NE 7 0 0,0
13.01.2018 21:00:00 -0,8 -1,4 4 2 16 8 WNW 17 0 0,0
13.01.2018 20:00:00 -0,7 -1,4 1 1 12 7 WNW 5 0 0,0
13.01.2018 19:00:00 -0,5 -1,2 3 1 7 4 NNE 0,5 0 -
13.01.2018 18:00:00 -0,3 -1,2 2 1 14 8 NNE 0,9 0 0,0
13.01.2018 17:00:00 -0,1 -1,2 3 2 11 6 NE 0,3 0 0,2
13.01.2018 16:00:00 0,3 -1,0 5 3 21 11 ENE 1,1 0 0,4
13.01.2018 15:00:00 0,5 -0,5 7 4 18 10 SE 3,2 0 0,0
13.01.2018 14:00:00 0,5 -0,3 3 2 9 5 NE 12 0 0,4
13.01.2018 13:00:00 0,5 -0,3 3 2 17 9 NE 0,8 0 -
13.01.2018 12:00:00 0,1 -0,7 4 2 10 6 NNE 0,5 0 0,4
13.01.2018 11:00:00 0,1 -1,0 5 3 16 8 NE 1,7 0 0,0
13.01.2018 10:00:00 0,3 -1,0 4 2 17 9 NW 10 0 0,0
13.01.2018 09:00:00 -0,5 -1,7 2 1 16 9 S 20 0 0,0
13.01.2018 08:00:00 -0,7 -2,0 7 4 18 10 WNW 19 0 0,0
13.01.2018 07:00:00 -1,0 -2,2 7 4 19 10 N 20 0 -
13.01.2018 06:00:00 -1,2 -2,5 7 4 20 11 NNE 20 0 0,0
13.01.2018 05:00:00 -1,5 -2,5 5 3 19 10 NNE 20 0 0,0
13.01.2018 04:00:00 -1,4 -2,2 4 2 18 10 ENE 20 0 0,0
13.01.2018 03:00:00 -1,8 -2,5 6 4 21 11 W 6 0 0,0
13.01.2018 02:00:00 -1,9 -2,5 5 3 18 10 WNW 6 0 0,0
13.01.2018 01:00:00 -1,5 -2,2 5 3 17 9 SW 0,2 0 -
13.01.2018 00:00:00 -1,4 -2,2 8 4 14 8 SSW 0,2 0 0,0
12.01.2018 23:00:00 -1,0 -2,0 3 2 16 9 NE 0,3 0 0,0
12.01.2018 22:00:00 -0,7 -1,4 5 3 14 8 WNW 1,4 0 0,0
12.01.2018 21:00:00 -0,6 -1,4 7 4 16 9 SE 1,4 0 0,0
12.01.2018 20:00:00 -0,6 -1,7 3 1 13 7 N 0,3 0 0,0
12.01.2018 19:00:00 -0,3 -1,7 5 3 10 5 ENE 1,0 0 -
12.01.2018 18:00:00 0,3 -1,4 5 3 13 7 ENE 15 0 0,0
12.01.2018 17:00:00 1,6 -0,7 7 4 12 6 NE 20 0 0,0
12.01.2018 16:00:00 2,7 -0,5 6 4 12 6 NE 20 12 0,0
12.01.2018 15:00:00 3,6 -0,3 6 3 11 6 NE 20 8 0,0
12.01.2018 14:00:00 5,0 -0,5 4 2 11 6 ENE 20 0 0,0
12.01.2018 13:00:00 4,8 -1,2 5 3 22 12 E 20 53 -
12.01.2018 12:00:00 4,3 -1,4 5 3 16 9 E 20 60 0,0
12.01.2018 11:00:00 1,7 -3,3 4 2 18 10 WSW 20 60 0,0
12.01.2018 10:00:00 -1,0 -4,2 6 3 18 10 WNW 20 60 0,0
12.01.2018 09:00:00 -3,2 -5,1 7 4 17 9 WNW 20 1 0,0
12.01.2018 08:00:00 -2,7 -4,5 6 4 18 10 W 20 0 0,0
12.01.2018 07:00:00 -2,3 -4,5 3 1 20 11 WNW 20 0 -

tt = temperature
td = dewpoint
ff = wind speed
fx = gusts
dd = wind direction
vv = visibility
sd = sunshine duration
rr = precipitation

Next stations